Time;durP1;ratioP1;P1;durP2;ratioP2;P2;SDS_P1;SDS_P2;PMS_P1;PMS_P2;Temp;Humidity;BMP_temperature;BMP_pressure;BME280_temperature;BME280_humidity;BME280_pressure;Samples;Min_cycle;Max_cycle;Signal;HPM_P1;HPM_P2
2023/02/27 00:00:55;;;;;;;1.75;1.30;;;17.90;35.60;;;;;;4934931;29;20237;-83
2023/02/27 00:03:22;;;;;;;1.77;1.38;;;18.00;35.70;;;;;;4949739;29;20190;-80
2023/02/27 00:05:49;;;;;;;2.05;1.45;;;18.00;35.70;;;;;;4933306;29;20539;-83
2023/02/27 00:08:14;;;;;;;2.13;1.30;;;17.90;35.70;;;;;;4934148;29;20569;-81
2023/02/27 00:10:46;;;;;;;1.55;1.25;;;18.00;35.70;;;;;;4917803;29;20180;-82
2023/02/27 00:13:12;;;;;;;2.03;1.30;;;18.00;35.70;;;;;;4933508;29;20197;-82
2023/02/27 00:15:39;;;;;;;2.00;1.40;;;18.00;35.70;;;;;;4950080;29;20158;-82
2023/02/27 00:18:07;;;;;;;2.47;1.27;;;18.00;35.70;;;;;;4918448;29;20174;-82
2023/02/27 00:20:36;;;;;;;1.85;1.25;;;18.00;35.70;;;;;;4933960;29;20628;-83
2023/02/27 00:23:05;;;;;;;1.90;1.42;;;18.00;35.80;;;;;;4949879;29;20193;-82
2023/02/27 00:25:33;;;;;;;1.70;1.40;;;17.90;35.70;;;;;;4949546;29;20168;-81
2023/02/27 00:28:00;;;;;;;2.08;1.15;;;18.00;35.80;;;;;;4933960;29;20554;-82
2023/02/27 00:30:26;;;;;;;1.40;1.30;;;17.90;35.80;;;;;;4938074;29;20688;-82
2023/02/27 00:32:52;;;;;;;1.85;1.55;;;17.90;35.80;;;;;;4937514;29;20239;-82
2023/02/27 00:35:18;;;;;;;1.83;1.35;;;17.90;35.80;;;;;;4937409;29;20169;-83
2023/02/27 00:37:48;;;;;;;2.30;1.30;;;18.00;35.90;;;;;;4936917;29;20569;-83
2023/02/27 00:40:16;;;;;;;2.78;1.48;;;17.90;35.80;;;;;;4938003;29;20204;-82
2023/02/27 00:42:47;;;;;;;3.33;1.67;;;17.90;35.90;;;;;;4938022;29;20182;-81
2023/02/27 00:45:14;;;;;;;1.95;1.23;;;17.80;35.80;;;;;;4938545;29;20155;-80
2023/02/27 00:47:39;;;;;;;1.52;1.38;;;17.90;36.60;;;;;;4921871;29;20205;-80
2023/02/27 00:50:09;;;;;;;2.58;1.33;;;17.90;35.90;;;;;;4954005;29;20253;-80
2023/02/27 00:52:39;;;;;;;1.45;1.30;;;17.90;35.90;;;;;;4922808;29;20198;-80
2023/02/27 00:55:08;;;;;;;1.75;1.38;;;17.90;35.90;;;;;;4939191;29;20209;-80
2023/02/27 00:57:37;;;;;;;1.30;1.20;;;17.90;36.00;;;;;;4953983;29;20166;-81
2023/02/27 01:00:06;;;;;;;2.17;1.25;;;17.90;35.90;;;;;;4953978;29;20181;-81
2023/02/27 01:02:33;;;;;;;1.35;1.23;;;17.90;36.00;;;;;;4920761;29;20229;-81
2023/02/27 01:05:01;;;;;;;1.48;1.30;;;17.90;36.00;;;;;;4921596;29;20185;-81
2023/02/27 01:07:32;;;;;;;1.92;1.50;;;17.80;36.00;;;;;;4922010;29;20225;-80
2023/02/27 01:09:59;;;;;;;1.48;1.20;;;17.80;36.10;;;;;;4937180;29;20197;-81
2023/02/27 01:12:25;;;;;;;1.92;1.38;;;17.80;36.10;;;;;;4922037;29;20158;-81
2023/02/27 01:14:54;;;;;;;1.80;1.50;;;17.80;36.20;;;;;;4921926;29;20202;-81
2023/02/27 01:17:20;;;;;;;2.65;1.25;;;17.80;36.10;;;;;;4921482;29;20178;-80
2023/02/27 01:19:47;;;;;;;3.15;1.50;;;17.90;36.10;;;;;;4921128;29;20241;-82
2023/02/27 01:22:18;;;;;;;2.20;1.50;;;17.80;36.10;;;;;;4920495;29;20182;-81
2023/02/27 01:24:47;;;;;;;3.15;1.30;;;17.80;36.10;;;;;;4937410;29;20177;-81
2023/02/27 01:27:13;;;;;;;2.97;1.30;;;17.80;36.20;;;;;;4952581;29;20237;-81
2023/02/27 01:29:39;;;;;;;2.40;1.50;;;17.80;36.20;;;;;;4935914;29;20218;-81
2023/02/27 01:32:05;;;;;;;1.83;1.30;;;17.80;36.10;;;;;;4952284;29;20190;-81
2023/02/27 01:34:33;;;;;;;1.30;1.15;;;17.80;36.20;;;;;;4920629;29;20217;-81
2023/02/27 01:37:02;;;;;;;1.60;1.10;;;17.80;36.20;;;;;;4920538;29;20534;-81
2023/02/27 01:39:28;;;;;;;2.47;1.50;;;17.80;36.20;;;;;;4919813;29;20309;-81
2023/02/27 01:41:55;;;;;;;2.03;1.45;;;17.80;36.20;;;;;;4935533;29;20201;-81
2023/02/27 01:44:25;;;;;;;1.85;1.23;;;17.80;36.20;;;;;;4952336;29;20162;-81
2023/02/27 01:46:51;;;;;;;1.63;1.40;;;17.80;36.30;;;;;;4953018;29;20161;-81
2023/02/27 01:49:24;;;;;;;1.52;1.05;;;17.80;36.20;;;;;;4920544;29;20162;-80
2023/02/27 01:51:54;;;;;;;1.50;1.35;;;17.80;36.30;;;;;;4920298;29;20170;-81
2023/02/27 01:54:22;;;;;;;2.13;1.55;;;17.80;36.30;;;;;;4920639;29;20189;-81
2023/02/27 01:56:48;;;;;;;2.22;1.35;;;17.70;36.30;;;;;;4937060;29;20154;-81
2023/02/27 01:59:16;;;;;;;1.85;1.65;;;17.80;36.20;;;;;;4920758;29;20181;-81
2023/02/27 02:01:42;;;;;;;2.13;1.30;;;17.80;36.20;;;;;;4920149;29;20174;-81
2023/02/27 02:04:34;;;;;;;1.77;1.35;;;17.80;36.30;;;;;;4951604;29;20168;-80
2023/02/27 02:07:15;;;;;;;1.52;1.40;;;17.70;36.30;;;;;;4935282;29;20182;-80
2023/02/27 02:09:51;;;;;;;1.70;1.17;;;17.70;36.30;;;;;;4935483;29;20158;-82
2023/02/27 02:12:17;;;;;;;1.65;1.30;;;17.70;36.40;;;;;;4935797;29;20204;-80
2023/02/27 02:14:44;;;;;;;1.98;1.50;;;17.70;36.30;;;;;;4935958;29;20208;-81
2023/02/27 02:17:34;;;;;;;1.95;1.38;;;17.70;36.30;;;;;;4936065;29;20174;-81
2023/02/27 02:20:32;;;;;;;2.60;1.40;;;17.70;36.30;;;;;;4951129;29;20158;-81
2023/02/27 02:23:31;;;;;;;2.15;1.40;;;17.70;36.40;;;;;;4951345;29;20181;-80
2023/02/27 02:26:31;;;;;;;1.55;1.23;;;17.70;36.40;;;;;;4938177;29;20207;-81
2023/02/27 02:29:31;;;;;;;2.17;1.30;;;17.60;36.40;;;;;;4939595;29;20317;-81
2023/02/27 02:32:31;;;;;;;1.65;1.13;;;17.70;36.40;;;;;;4950720;29;20181;-81
2023/02/27 02:35:31;;;;;;;1.90;1.40;;;17.60;36.50;;;;;;4936903;29;20170;-81
2023/02/27 02:38:31;;;;;;;1.38;1.27;;;17.70;36.50;;;;;;4938048;29;20182;-81
2023/02/27 02:41:31;;;;;;;1.60;1.50;;;17.70;36.50;;;;;;4951044;29;20282;-82
2023/02/27 02:44:23;;;;;;;2.80;1.20;;;17.70;36.40;;;;;;4939529;29;20182;-81
2023/02/27 02:47:21;;;;;;;2.15;1.38;;;17.70;36.50;;;;;;4951493;29;20164;-81
2023/02/27 02:50:20;;;;;;;1.52;1.30;;;17.60;36.60;;;;;;4952978;29;20185;-80
2023/02/27 02:53:21;;;;;;;1.85;1.20;;;17.70;36.60;;;;;;4950800;29;20185;-80
2023/02/27 02:56:23;;;;;;;1.48;1.35;;;17.60;36.60;;;;;;4953182;29;20164;-80
2023/02/27 02:59:05;;;;;;;2.13;1.48;;;17.70;36.60;;;;;;4936788;29;20184;-81
2023/02/27 03:01:55;;;;;;;1.30;1.20;;;17.60;36.60;;;;;;4921675;29;20697;-81
2023/02/27 03:04:51;;;;;;;3.28;1.60;;;17.70;36.60;;;;;;4951779;29;20178;-80
2023/02/27 03:07:29;;;;;;;1.90;1.50;;;17.60;36.60;;;;;;4952855;29;20208;-81
2023/02/27 03:10:33;;;;;;;1.80;1.30;;;17.70;36.60;;;;;;4920509;29;20193;-81
2023/02/27 03:13:11;;;;;;;1.75;1.40;;;17.60;36.60;;;;;;4951831;29;20204;-81
2023/02/27 03:15:49;;;;;;;1.33;1.23;;;17.60;36.60;;;;;;4935513;29;20185;-81
2023/02/27 03:18:23;;;;;;;1.48;1.38;;;17.60;36.60;;;;;;4936140;29;20174;-81
2023/02/27 03:20:54;;;;;;;2.67;1.50;;;17.70;36.70;;;;;;4936000;29;20204;-81
2023/02/27 03:23:39;;;;;;;2.13;1.60;;;17.70;36.70;;;;;;4920407;29;20660;-81
2023/02/27 03:26:47;;;;;;;1.60;1.33;;;17.70;36.70;;;;;;4935998;29;20178;-80
2023/02/27 03:29:16;;;;;;;1.77;1.40;;;17.60;36.70;;;;;;4939206;29;20233;-82
2023/02/27 03:32:08;;;;;;;2.30;1.58;;;17.70;36.70;;;;;;4951856;29;20182;-81
2023/02/27 03:34:48;;;;;;;1.60;1.35;;;17.60;36.70;;;;;;4952233;29;20163;-80
2023/02/27 03:37:55;;;;;;;2.13;1.20;;;17.60;36.70;;;;;;4950986;29;20161;-83
2023/02/27 03:40:30;;;;;;;2.58;1.60;;;17.70;36.80;;;;;;4940899;29;20170;-81
2023/02/27 03:43:21;;;;;;;2.97;1.40;;;17.60;36.70;;;;;;4919514;29;20169;-81
2023/02/27 03:46:27;;;;;;;2.17;1.40;;;17.60;36.70;;;;;;4925424;29;20154;-82
2023/02/27 03:48:52;;;;;;;1.58;1.30;;;17.60;36.80;;;;;;4950898;29;20225;-81
2023/02/27 03:51:22;;;;;;;1.77;1.33;;;17.50;36.70;;;;;;4934748;29;20163;-81
2023/02/27 03:54:03;;;;;;;1.60;1.33;;;17.60;36.80;;;;;;4934842;29;20174;-82
2023/02/27 03:57:10;;;;;;;2.28;1.55;;;17.60;36.80;;;;;;4950982;29;20614;-81
2023/02/27 03:59:37;;;;;;;2.05;1.20;;;17.60;36.80;;;;;;4950546;29;20224;-80
2023/02/27 04:02:09;;;;;;;2.25;1.40;;;17.60;36.80;;;;;;4951102;29;20178;-80
2023/02/27 04:04:42;;;;;;;1.42;1.33;;;17.60;36.80;;;;;;4934047;29;20172;-80
2023/02/27 04:07:46;;;;;;;1.88;1.50;;;17.60;36.90;;;;;;4950884;29;20181;-81
2023/02/27 04:11:06;;;;;;;2.20;1.30;;;17.60;36.90;;;;;;4938289;29;20166;-80
2023/02/27 04:13:50;;;;;;;1.45;1.35;;;17.60;36.90;;;;;;4939702;29;20166;-81
2023/02/27 04:16:43;;;;;;;2.00;1.40;;;17.60;36.90;;;;;;4920758;29;20221;-82
2023/02/27 04:19:41;;;;;;;1.35;1.10;;;17.60;36.90;;;;;;4923065;29;20180;-81
2023/02/27 04:22:38;;;;;;;2.00;1.20;;;17.60;37.00;;;;;;4950892;29;20177;-81
2023/02/27 04:25:58;;;;;;;1.73;1.50;;;17.60;36.90;;;;;;4937636;29;20177;-81
2023/02/27 04:31:41;;;;;;;2.15;1.40;;;17.60;36.90;;;;;;4958986;29;20169;-81
2023/02/27 04:34:56;;;;;;;2.58;1.40;;;17.60;36.90;;;;;;4954747;29;20248;-81
2023/02/27 04:38:03;;;;;;;2.03;1.40;;;17.60;37.00;;;;;;4953476;29;20769;-80
2023/02/27 04:40:45;;;;;;;2.42;1.35;;;17.60;36.90;;;;;;4970109;29;20177;-81
2023/02/27 04:43:13;;;;;;;1.77;1.45;;;17.60;37.00;;;;;;4924256;29;20169;-80
2023/02/27 04:46:07;;;;;;;1.70;1.30;;;17.50;36.90;;;;;;4952246;29;20173;-81
2023/02/27 04:49:11;;;;;;;1.58;1.25;;;17.60;37.00;;;;;;4954124;29;20204;-81
2023/02/27 04:52:05;;;;;;;1.45;1.35;;;17.60;37.00;;;;;;4956489;29;20169;-81
2023/02/27 04:54:52;;;;;;;1.88;1.50;;;17.60;37.00;;;;;;4970234;29;20177;-81
2023/02/27 04:57:40;;;;;;;1.58;1.30;;;17.60;37.00;;;;;;4952041;29;20169;-81
2023/02/27 05:00:07;;;;;;;1.75;1.52;;;17.50;37.00;;;;;;4940904;29;20173;-81
2023/02/27 05:03:11;;;;;;;1.70;1.40;;;17.60;37.00;;;;;;4953205;29;20221;-81
2023/02/27 05:05:49;;;;;;;2.50;1.40;;;17.60;37.00;;;;;;4971195;29;20197;-81
2023/02/27 05:08:34;;;;;;;1.58;1.20;;;17.60;37.00;;;;;;4938656;29;20196;-80
2023/02/27 05:11:42;;;;;;;1.65;1.50;;;17.60;37.00;;;;;;4937246;29;20162;-80
2023/02/27 05:14:48;;;;;;;2.22;1.30;;;17.60;37.10;;;;;;4970561;28;20258;-82
2023/02/27 05:17:25;;;;;;;1.30;1.20;;;17.50;37.10;;;;;;4943002;29;20177;-81
2023/02/27 05:20:16;;;;;;;1.85;1.40;;;17.50;37.10;;;;;;4941861;29;20171;-81
2023/02/27 05:23:32;;;;;;;2.00;1.50;;;17.50;37.20;;;;;;4942804;29;20236;-81
2023/02/27 05:26:46;;;;;;;1.50;1.40;;;17.50;37.20;;;;;;4946890;29;20196;-81
2023/02/27 05:29:58;;;;;;;2.58;1.40;;;17.50;37.10;;;;;;4973069;29;20739;-81
2023/02/27 05:32:42;;;;;;;1.48;1.38;;;17.50;37.10;;;;;;4973707;29;20679;-82
2023/02/27 05:35:26;;;;;;;2.65;1.50;;;17.60;37.20;;;;;;4940237;29;20188;-81
2023/02/27 05:38:31;;;;;;;2.42;1.52;;;17.50;37.20;;;;;;4940370;29;20169;-80
2023/02/27 05:41:07;;;;;;;2.78;1.27;;;17.50;37.20;;;;;;4955599;29;20196;-81
2023/02/27 05:43:55;;;;;;;1.40;1.30;;;17.50;37.20;;;;;;4940696;29;20176;-81
2023/02/27 05:46:34;;;;;;;2.78;1.30;;;17.50;37.20;;;;;;4942680;29;20181;-80
2023/02/27 05:49:22;;;;;;;2.10;1.60;;;17.50;37.30;;;;;;4957282;29;20260;-81
2023/02/27 05:52:10;;;;;;;1.58;1.45;;;17.60;37.30;;;;;;4942864;29;20169;-81
2023/02/27 05:55:00;;;;;;;1.60;1.40;;;17.50;37.20;;;;;;4972695;29;20640;-81
2023/02/27 05:58:03;;;;;;;1.52;1.40;;;17.50;37.20;;;;;;4938415;29;20177;-82
2023/02/27 06:00:51;;;;;;;2.10;1.40;;;17.50;37.30;;;;;;4938777;29;20169;-80
2023/02/27 06:03:17;;;;;;;3.97;1.20;;;17.50;37.20;;;;;;4939011;29;20628;-81
2023/02/27 06:05:44;;;;;;;1.85;1.20;;;17.50;37.30;;;;;;4919681;29;20177;-81
2023/02/27 06:08:10;;;;;;;2.38;1.60;;;17.60;37.30;;;;;;4934390;29;20197;-81
2023/02/27 06:10:35;;;;;;;3.45;1.60;;;17.50;37.30;;;;;;4950529;29;20188;-81
2023/02/27 06:13:04;;;;;;;2.15;1.45;;;17.50;37.30;;;;;;4936922;29;20169;-82
2023/02/27 06:15:30;;;;;;;1.55;1.38;;;17.50;37.40;;;;;;4937083;29;20181;-82
2023/02/27 06:17:55;;;;;;;1.35;1.20;;;17.50;37.40;;;;;;4922160;29;20176;-81
2023/02/27 06:20:22;;;;;;;1.80;1.45;;;17.40;37.30;;;;;;4937224;29;20166;-83
2023/02/27 06:22:48;;;;;;;2.17;1.48;;;17.50;37.30;;;;;;4953003;29;20158;-81
2023/02/27 06:25:17;;;;;;;1.55;1.38;;;17.50;37.30;;;;;;4969456;29;20288;-82
2023/02/27 06:27:43;;;;;;;1.95;1.25;;;17.50;37.30;;;;;;4936148;29;20209;-83
2023/02/27 06:30:15;;;;;;;1.60;1.48;;;17.60;37.30;;;;;;4936226;29;20225;-82
2023/02/27 06:32:41;;;;;;;3.45;1.58;;;17.60;37.30;;;;;;4937650;29;20164;-82
2023/02/27 06:35:07;;;;;;;2.72;1.50;;;17.50;37.30;;;;;;4920594;29;20201;-81
2023/02/27 06:37:33;;;;;;;2.28;1.40;;;17.60;37.30;;;;;;4936989;29;20177;-82
2023/02/27 06:40:01;;;;;;;2.75;1.25;;;17.50;37.30;;;;;;4948459;29;20243;-84
2023/02/27 06:42:26;;;;;;;1.92;1.58;;;17.50;37.30;;;;;;4966550;29;20216;-83
2023/02/27 06:44:52;;;;;;;2.15;1.55;;;17.60;37.30;;;;;;4932363;29;20169;-84
2023/02/27 06:47:20;;;;;;;1.90;1.40;;;17.60;37.30;;;;;;4932668;29;20608;-83
2023/02/27 06:49:45;;;;;;;2.08;1.55;;;17.50;37.30;;;;;;4930704;29;20165;-84
2023/02/27 06:52:11;;;;;;;1.75;1.50;;;17.60;37.30;;;;;;4947122;29;20213;-84
2023/02/27 06:54:38;;;;;;;3.05;1.27;;;17.50;37.30;;;;;;4915761;29;20188;-84
2023/02/27 06:57:04;;;;;;;2.20;1.70;;;17.50;37.30;;;;;;4930855;29;20669;-83
2023/02/27 06:59:29;;;;;;;1.55;1.40;;;17.50;37.30;;;;;;4930442;29;20248;-84
2023/02/27 07:01:55;;;;;;;2.00;1.38;;;17.50;37.30;;;;;;4930307;29;20217;-84
2023/02/27 07:04:36;;;;;;;1.40;1.30;;;17.50;37.30;;;;;;4930272;29;20580;-84
2023/02/27 07:07:01;;;;;;;2.08;1.20;;;17.50;37.30;;;;;;4964467;29;20561;-82
2023/02/27 07:09:27;;;;;;;3.20;1.55;;;17.60;37.40;;;;;;4915574;29;20173;-83
2023/02/27 07:11:57;;;;;;;4.85;1.73;;;17.50;37.30;;;;;;4930836;29;20161;-82
2023/02/27 07:14:27;;;;;;;2.78;1.45;;;17.50;37.30;;;;;;4946049;29;20162;-84
2023/02/27 07:16:56;;;;;;;1.95;1.50;;;17.60;37.40;;;;;;4915287;29;20197;-83
2023/02/27 07:19:22;;;;;;;4.32;1.70;;;17.50;37.40;;;;;;4915002;29;20182;-83
2023/02/27 07:21:50;;;;;;;4.70;1.50;;;17.60;37.40;;;;;;4929919;29;20201;-83
2023/02/27 07:24:17;;;;;;;1.50;1.25;;;17.50;37.30;;;;;;4929077;29;20236;-83
2023/02/27 07:26:45;;;;;;;2.10;1.40;;;17.60;37.40;;;;;;4930697;29;20208;-83
2023/02/27 07:29:13;;;;;;;1.30;1.17;;;17.60;37.30;;;;;;4930908;29;20228;-84
2023/02/27 07:31:45;;;;;;;2.58;1.40;;;17.50;37.40;;;;;;4930410;29;20174;-83
2023/02/27 07:34:12;;;;;;;2.35;1.27;;;17.50;37.30;;;;;;4931509;29;20267;-85
2023/02/27 07:36:50;;;;;;;3.10;1.52;;;17.60;38.10;;;;;;4931144;29;20176;-83
2023/02/27 07:39:31;;;;;;;1.77;1.23;;;17.60;37.40;;;;;;4947133;29;20279;-85
2023/02/27 07:42:11;;;;;;;1.90;1.20;;;17.70;37.20;;;;;;4946736;29;20173;-84
2023/02/27 07:44:36;;;;;;;3.08;1.30;;;17.80;37.20;;;;;;4933249;29;20181;-83
2023/02/27 07:47:13;;;;;;;2.60;1.42;;;17.70;37.10;;;;;;4930157;29;20240;-83
2023/02/27 07:49:50;;;;;;;3.45;1.30;;;17.90;37.20;;;;;;4913348;29;20180;-85
2023/02/27 07:52:31;;;;;;;2.92;1.40;;;17.90;36.90;;;;;;4945511;29;20165;-83
2023/02/27 07:54:57;;;;;;;2.50;1.33;;;17.90;37.00;;;;;;4929994;29;20636;-84
2023/02/27 07:57:26;;;;;;;3.25;1.63;;;17.90;37.00;;;;;;4911186;29;20272;-85
2023/02/27 07:59:53;;;;;;;1.40;1.10;;;18.00;37.10;;;;;;4943432;29;20157;-85
2023/02/27 08:02:20;;;;;;;1.23;1.13;;;18.00;37.00;;;;;;4939308;29;20181;-85
2023/02/27 08:04:50;;;;;;;1.55;1.20;;;18.00;37.00;;;;;;4908406;29;20174;-84
2023/02/27 08:07:16;;;;;;;1.23;1.05;;;18.00;36.80;;;;;;4939344;29;20165;-84
2023/02/27 08:09:42;;;;;;;1.80;1.33;;;18.00;36.70;;;;;;4907493;29;20260;-84
2023/02/27 08:12:10;;;;;;;2.50;1.20;;;18.10;36.70;;;;;;4922849;29;20177;-84
2023/02/27 08:14:37;;;;;;;1.30;1.20;;;18.10;36.80;;;;;;4923793;29;20158;-84
2023/02/27 08:17:03;;;;;;;1.50;1.20;;;18.10;36.90;;;;;;4907595;29;20249;-84
2023/02/27 08:19:30;;;;;;;1.38;1.10;;;18.00;36.70;;;;;;4908107;29;20180;-84
2023/02/27 08:21:55;;;;;;;1.60;1.10;;;18.10;36.80;;;;;;4909174;29;20177;-84
2023/02/27 08:24:21;;;;;;;1.63;1.25;;;18.10;36.90;;;;;;4924882;29;20519;-84
2023/02/27 08:26:52;;;;;;;2.00;1.33;;;18.20;36.70;;;;;;4924933;29;20177;-84
2023/02/27 08:29:17;;;;;;;2.15;1.17;;;18.20;36.70;;;;;;4909610;29;20304;-84
2023/02/27 08:31:45;;;;;;;1.55;1.08;;;18.20;36.70;;;;;;4923975;29;20248;-85
2023/02/27 08:34:12;;;;;;;1.35;1.08;;;18.20;37.00;;;;;;4956448;29;20173;-84
2023/02/27 08:36:38;;;;;;;1.17;1.08;;;18.30;36.60;;;;;;4907687;29;20169;-84
2023/02/27 08:39:04;;;;;;;1.17;1.00;;;18.30;36.70;;;;;;4938938;29;20158;-83
2023/02/27 08:41:30;;;;;;;1.20;1.10;;;18.20;36.70;;;;;;4907847;29;20173;-83
2023/02/27 08:43:56;;;;;;;1.42;1.10;;;18.20;36.90;;;;;;4955249;29;20165;-84
2023/02/27 08:46:21;;;;;;;1.58;0.93;;;18.30;37.10;;;;;;4938917;29;20505;-84
2023/02/27 08:48:47;;;;;;;1.42;1.10;;;18.30;37.00;;;;;;4924721;29;20189;-83
2023/02/27 08:51:13;;;;;;;1.45;1.20;;;18.40;36.70;;;;;;4928835;29;20166;-84
2023/02/27 08:53:39;;;;;;;1.60;1.10;;;18.40;36.50;;;;;;4927558;29;20165;-84
2023/02/27 08:56:05;;;;;;;1.33;0.98;;;18.40;36.80;;;;;;4928871;29;20169;-84
2023/02/27 08:58:31;;;;;;;2.28;0.82;;;18.40;36.70;;;;;;4945023;29;20170;-84
2023/02/27 09:00:57;;;;;;;1.25;1.15;;;18.50;36.80;;;;;;4961579;29;20165;-84
2023/02/27 09:03:27;;;;;;;2.45;0.95;;;18.50;36.40;;;;;;4929497;29;20197;-83
2023/02/27 09:05:58;;;;;;;2.38;1.05;;;18.50;36.70;;;;;;4932200;29;20185;-84
2023/02/27 09:08:23;;;;;;;1.10;1.00;;;18.50;36.70;;;;;;4931546;29;20201;-83
2023/02/27 09:10:49;;;;;;;1.35;0.98;;;18.50;36.60;;;;;;4930667;29;20185;-83
2023/02/27 09:13:15;;;;;;;2.75;1.20;;;18.50;36.80;;;;;;4947101;29;20153;-84
2023/02/27 09:15:41;;;;;;;2.90;1.10;;;18.50;36.50;;;;;;4913590;29;20250;-83
2023/02/27 09:18:08;;;;;;;4.82;0.90;;;18.50;36.80;;;;;;4914572;29;20169;-83
2023/02/27 09:20:35;;;;;;;7.15;1.30;;;18.60;36.80;;;;;;4930444;29;20176;-84
2023/02/27 09:23:01;;;;;;;17.48;1.67;;;18.60;36.90;;;;;;4928521;29;20173;-84
2023/02/27 09:25:28;;;;;;;6.85;1.30;;;18.50;36.60;;;;;;4929586;29;20177;-84
2023/02/27 09:27:54;;;;;;;6.90;1.35;;;18.60;36.80;;;;;;4930746;29;20244;-83
2023/02/27 09:30:22;;;;;;;6.20;1.05;;;18.60;36.80;;;;;;4929435;29;20228;-84
2023/02/27 09:32:48;;;;;;;10.55;1.45;;;18.60;36.80;;;;;;4912644;29;20177;-83
2023/02/27 09:35:14;;;;;;;19.58;1.88;;;18.70;36.90;;;;;;4929431;29;20521;-84
2023/02/27 09:37:41;;;;;;;10.90;1.85;;;18.70;36.80;;;;;;4946848;29;20283;-84
2023/02/27 09:40:11;;;;;;;10.27;1.80;;;18.80;36.90;;;;;;4930364;29;20274;-84
2023/02/27 09:42:44;;;;;;;9.27;1.80;;;18.70;36.90;;;;;;4915218;29;20181;-83
2023/02/27 09:45:22;;;;;;;13.40;1.80;;;18.70;36.80;;;;;;4927189;29;20180;-84
2023/02/27 09:47:50;;;;;;;5.68;1.15;;;18.60;36.70;;;;;;4913208;29;20201;-83
2023/02/27 09:50:20;;;;;;;7.55;1.60;;;18.60;37.00;;;;;;4929856;29;20196;-84
2023/02/27 09:52:46;;;;;;;6.32;1.10;;;18.60;36.80;;;;;;4945116;29;20157;-83
2023/02/27 09:55:16;;;;;;;5.95;1.10;;;18.60;37.10;;;;;;4914423;29;20189;-83
2023/02/27 09:57:57;;;;;;;6.88;1.20;;;18.50;36.90;;;;;;4928554;29;20165;-84
2023/02/27 10:00:44;;;;;;;5.95;1.23;;;18.50;37.10;;;;;;4911918;29;20174;-84
2023/02/27 10:03:38;;;;;;;9.07;1.45;;;18.40;37.10;;;;;;4916460;29;20595;-84
2023/02/27 10:06:29;;;;;;;9.75;1.52;;;18.50;37.60;;;;;;4930916;29;20172;-84
2023/02/27 10:09:20;;;;;;;8.27;1.40;;;18.50;37.60;;;;;;4928263;29;20201;-84
2023/02/27 10:12:19;;;;;;;7.50;1.17;;;18.50;37.60;;;;;;4947568;29;20162;-85
2023/02/27 10:15:19;;;;;;;5.55;1.05;;;18.50;37.80;;;;;;4949346;29;20162;-85
2023/02/27 10:17:48;;;;;;;7.22;1.08;;;18.60;37.50;;;;;;4948655;29;20192;-85
2023/02/27 10:20:31;;;;;;;9.20;1.48;;;18.60;37.30;;;;;;4925524;29;20547;-84
2023/02/27 10:23:00;;;;;;;4.82;1.40;;;18.70;37.50;;;;;;4927450;29;20248;-84
2023/02/27 10:25:26;;;;;;;8.25;1.38;;;18.80;37.30;;;;;;4943557;29;20177;-84
2023/02/27 10:27:55;;;;;;;3.58;0.98;;;18.70;37.30;;;;;;4925686;29;20224;-83
2023/02/27 10:30:25;;;;;;;8.45;1.30;;;18.70;37.40;;;;;;4924941;29;20221;-83
2023/02/27 10:33:06;;;;;;;15.57;1.75;;;18.70;37.50;;;;;;4925243;29;20161;-83
2023/02/27 10:35:34;;;;;;;9.00;1.52;;;18.60;37.40;;;;;;4911327;29;20173;-83
2023/02/27 10:38:28;;;;;;;8.95;1.30;;;18.60;37.60;;;;;;4940764;29;20253;-83
2023/02/27 10:40:54;;;;;;;4.70;1.00;;;18.60;37.50;;;;;;4927090;29;20213;-83
2023/02/27 10:43:20;;;;;;;12.25;1.30;;;18.70;37.40;;;;;;4925669;29;20200;-83
2023/02/27 10:45:46;;;;;;;10.00;1.25;;;18.70;37.40;;;;;;4942363;29;20162;-83
2023/02/27 10:48:13;;;;;;;6.85;1.13;;;18.70;37.30;;;;;;4941913;29;20290;-84
2023/02/27 10:50:41;;;;;;;13.77;1.52;;;18.80;37.30;;;;;;4941835;29;20245;-83
2023/02/27 10:53:16;;;;;;;12.32;1.45;;;18.80;37.10;;;;;;4925334;29;20158;-83
2023/02/27 10:55:42;;;;;;;9.88;1.58;;;18.80;37.20;;;;;;4925513;29;20160;-83
2023/02/27 10:58:08;;;;;;;16.05;1.77;;;18.80;37.30;;;;;;4924869;29;20245;-83
2023/02/27 11:00:44;;;;;;;6.10;1.27;;;18.80;37.50;;;;;;4925099;29;20173;-84
2023/02/27 11:03:22;;;;;;;8.05;1.55;;;18.70;37.40;;;;;;4941696;29;20217;-83
2023/02/27 11:05:58;;;;;;;7.43;1.40;;;18.80;37.50;;;;;;4927403;29;20228;-84
2023/02/27 11:08:26;;;;;;;10.10;1.60;;;18.90;37.50;;;;;;4926746;29;20664;-83
2023/02/27 11:10:56;;;;;;;13.70;1.63;;;18.90;37.50;;;;;;4927142;29;20166;-84
2023/02/27 11:13:24;;;;;;;11.75;1.70;;;18.80;37.60;;;;;;4926357;29;20153;-83
2023/02/27 11:16:14;;;;;;;13.05;1.75;;;18.70;37.90;;;;;;4926285;29;20266;-83
2023/02/27 11:18:43;;;;;;;13.95;1.90;;;18.90;38.10;;;;;;4941614;29;20166;-84
2023/02/27 11:21:25;;;;;;;12.43;1.58;;;18.90;38.00;;;;;;4911048;29;20180;-83
2023/02/27 11:24:06;;;;;;;16.45;1.45;;;18.90;38.00;;;;;;4927501;29;20172;-83
2023/02/27 11:26:33;;;;;;;12.32;1.88;;;18.90;37.90;;;;;;4927016;29;20194;-83
2023/02/27 11:29:13;;;;;;;7.25;1.40;;;18.90;38.00;;;;;;4921773;29;20221;-83
2023/02/27 11:31:57;;;;;;;7.05;1.42;;;18.90;38.00;;;;;;4924879;29;20546;-83
2023/02/27 11:34:27;;;;;;;8.95;1.60;;;18.90;38.00;;;;;;4923717;29;20288;-83
2023/02/27 11:36:57;;;;;;;10.98;1.52;;;18.80;38.10;;;;;;4938056;29;20238;-83
2023/02/27 11:39:33;;;;;;;10.63;1.65;;;18.90;38.20;;;;;;4920737;29;20230;-83
2023/02/27 11:42:07;;;;;;;11.60;1.70;;;18.90;38.40;;;;;;4923609;29;20169;-83
2023/02/27 11:44:35;;;;;;;8.82;1.27;;;19.00;38.50;;;;;;4907322;29;20267;-86
2023/02/27 11:47:15;;;;;;;8.70;1.20;;;18.90;38.20;;;;;;4924352;29;20625;-86
2023/02/27 11:49:59;;;;;;;6.03;1.38;;;19.00;38.60;;;;;;4923754;29;20162;-85
2023/02/27 11:52:37;;;;;;;10.30;1.85;;;18.90;38.50;;;;;;4943725;29;20741;-86
2023/02/27 11:55:16;;;;;;;;;;;;;;;;;;;;;
2023/02/27 11:57:46;;;;;;;8.70;1.40;;;18.90;38.70;;;;;;4941397;29;20269;-86
2023/02/27 12:00:25;;;;;;;14.32;1.35;;;18.80;38.60;;;;;;4895369;29;20193;-86
2023/02/27 12:03:32;;;;;;;13.10;1.25;;;18.90;38.60;;;;;;4910084;29;20186;-86
2023/02/27 12:06:03;;;;;;;8.13;1.33;;;18.90;38.50;;;;;;4924389;29;20367;-85
2023/02/27 12:08:49;;;;;;;10.43;1.20;;;18.90;38.50;;;;;;4900987;29;20215;-86
2023/02/27 12:11:33;;;;;;;7.63;1.10;;;18.90;38.70;;;;;;4916462;29;20187;-85
2023/02/27 12:14:08;;;;;;;6.82;1.08;;;18.80;38.70;;;;;;4913077;29;20175;-86
2023/02/27 12:16:39;;;;;;;3.70;0.85;;;18.80;38.70;;;;;;4912287;29;20571;-82
2023/02/27 12:19:17;;;;;;;5.80;0.90;;;18.80;38.60;;;;;;4898708;29;20191;-86
2023/02/27 12:21:47;;;;;;;8.30;1.08;;;18.80;38.70;;;;;;4915278;29;20167;-86
2023/02/27 12:24:35;;;;;;;7.28;1.60;;;18.80;38.70;;;;;;4908860;29;20262;-86
2023/02/27 12:27:22;;;;;;;5.05;1.33;;;18.80;38.70;;;;;;4907678;29;20637;-85
2023/02/27 12:29:55;;;;;;;7.28;1.58;;;18.90;38.90;;;;;;4910528;29;20219;-85
2023/02/27 12:32:27;;;;;;;5.60;0.82;;;18.80;38.80;;;;;;4886084;29;20179;-85
2023/02/27 12:35:04;;;;;;;3.50;0.70;;;18.90;38.90;;;;;;4888539;29;20183;-85
2023/02/27 12:37:39;;;;;;;3.63;0.77;;;18.80;38.80;;;;;;4898499;29;20190;-87
2023/02/27 12:40:09;;;;;;;5.93;1.30;;;18.90;38.70;;;;;;4905283;29;20193;-86
2023/02/27 12:42:57;;;;;;;5.03;0.77;;;18.90;38.70;;;;;;4892961;29;20173;-85
2023/02/27 12:46:00;;;;;;;8.85;0.90;;;19.00;38.60;;;;;;4888865;29;20206;-85
2023/02/27 12:48:50;;;;;;;5.13;0.80;;;18.90;38.70;;;;;;4890790;29;20202;-85
2023/02/27 12:51:48;;;;;;;5.00;0.90;;;19.00;38.70;;;;;;4891165;29;20163;-86
2023/02/27 12:54:38;;;;;;;2.75;0.70;;;19.00;38.80;;;;;;4895931;29;20190;-86
2023/02/27 12:57:23;;;;;;;3.90;0.73;;;19.00;38.90;;;;;;4909214;29;20159;-87
2023/02/27 13:00:10;;;;;;;5.65;0.95;;;18.90;38.80;;;;;;4911777;29;20506;-85
2023/02/27 13:02:58;;;;;;;3.47;0.85;;;18.90;38.80;;;;;;4910186;29;20178;-85
2023/02/27 13:05:47;;;;;;;5.03;0.85;;;18.90;38.90;;;;;;4941605;29;20170;-85
2023/02/27 13:08:45;;;;;;;9.82;0.80;;;18.90;38.90;;;;;;4923790;29;20716;-86
2023/02/27 13:11:34;;;;;;;4.13;0.75;;;18.90;38.80;;;;;;4925588;29;20174;-84
2023/02/27 13:14:06;;;;;;;2.70;1.02;;;18.90;38.80;;;;;;4919982;29;20162;-85
2023/02/27 13:16:37;;;;;;;5.22;1.00;;;18.90;38.90;;;;;;4906382;29;20234;-84
2023/02/27 13:19:14;;;;;;;6.75;1.23;;;19.00;38.80;;;;;;4922457;29;20163;-84
2023/02/27 13:21:45;;;;;;;5.88;0.73;;;18.90;39.00;;;;;;4938377;29;20154;-86
2023/02/27 13:24:25;;;;;;;3.22;0.80;;;18.90;39.00;;;;;;4907497;29;20170;-85
2023/02/27 13:26:56;;;;;;;3.25;0.77;;;18.90;38.90;;;;;;4925497;29;20278;-84
2023/02/27 13:29:32;;;;;;;2.40;0.80;;;18.90;39.00;;;;;;4922525;29;20222;-85
2023/02/27 13:32:04;;;;;;;2.80;1.02;;;19.10;38.90;;;;;;4887326;29;20533;-85
2023/02/27 13:34:37;;;;;;;2.63;0.80;;;19.00;39.00;;;;;;4885825;29;20175;-84
2023/02/27 13:37:04;;;;;;;2.33;0.63;;;18.90;39.00;;;;;;4903751;29;20170;-85
2023/02/27 13:39:55;;;;;;;5.15;0.80;;;18.90;39.00;;;;;;4890765;29;20243;-83